Time;durP1;ratioP1;P1;durP2;ratioP2;P2;SDS_P1;SDS_P2;PMS_P1;PMS_P2;Temp;Humidity;BMP_temperature;BMP_pressure;BME280_temperature;BME280_humidity;BME280_pressure;Samples;Min_cycle;Max_cycle;Signal;HPM_P1;HPM_P2
2024/04/13 00:00:11;;;;;;;4.07;2.40;;;14.00;99.90;;;;;;6576822;21;20544;-84
2024/04/13 00:02:41;;;;;;;4.33;2.63;;;14.00;99.90;;;;;;6578566;21;20229;-85
2024/04/13 00:05:07;;;;;;;4.50;2.43;;;13.90;99.90;;;;;;6578090;21;20233;-85
2024/04/13 00:07:36;;;;;;;9.03;2.73;;;13.80;99.90;;;;;;6578189;21;20221;-85
2024/04/13 00:10:03;;;;;;;3.73;2.60;;;13.80;99.90;;;;;;6578232;21;20260;-86
2024/04/13 00:12:32;;;;;;;5.20;2.77;;;13.80;99.90;;;;;;6578298;21;20229;-85
2024/04/13 00:14:58;;;;;;;3.50;2.43;;;13.80;99.90;;;;;;6578505;21;20551;-86
2024/04/13 00:17:31;;;;;;;5.63;2.70;;;13.80;99.90;;;;;;6577746;21;20229;-85
2024/04/13 00:19:57;;;;;;;4.17;2.37;;;13.80;99.90;;;;;;6576963;21;20259;-85
2024/04/13 00:22:26;;;;;;;6.80;2.57;;;13.70;99.90;;;;;;6576893;21;20230;-85
2024/04/13 00:24:52;;;;;;;4.03;2.87;;;13.80;99.90;;;;;;6576912;21;20338;-85
2024/04/13 00:27:23;;;;;;;4.83;2.60;;;13.70;99.90;;;;;;6578032;21;20217;-86
2024/04/13 00:29:49;;;;;;;5.07;2.90;;;13.70;99.90;;;;;;6577331;21;20225;-86
2024/04/13 00:32:17;;;;;;;3.63;2.20;;;13.70;99.90;;;;;;6577665;21;20740;-85
2024/04/13 00:34:47;;;;;;;5.33;2.57;;;13.80;99.90;;;;;;6577888;21;20260;-87
2024/04/13 00:37:16;;;;;;;4.50;2.30;;;13.70;99.90;;;;;;6577260;21;20291;-86
2024/04/13 00:39:41;;;;;;;5.10;2.33;;;13.70;99.90;;;;;;6576944;21;20277;-85
2024/04/13 00:42:10;;;;;;;5.00;3.00;;;13.80;99.90;;;;;;6577020;21;20797;-85
2024/04/13 00:44:36;;;;;;;6.90;2.47;;;13.80;99.90;;;;;;6577131;21;20264;-86
2024/04/13 00:47:09;;;;;;;5.27;2.80;;;13.80;99.90;;;;;;6577147;21;20267;-86
2024/04/13 00:49:37;;;;;;;3.77;2.40;;;13.80;99.90;;;;;;6576755;21;20225;-85
2024/04/13 00:52:12;;;;;;;5.23;2.20;;;13.80;99.90;;;;;;6576068;21;20226;-86
2024/04/13 00:54:39;;;;;;;3.87;2.33;;;13.90;99.90;;;;;;6577334;21;20644;-85
2024/04/13 00:57:09;;;;;;;2.63;2.07;;;13.90;99.90;;;;;;6577350;21;20347;-85
2024/04/13 00:59:35;;;;;;;3.60;2.30;;;14.00;99.90;;;;;;6576327;21;20759;-86
2024/04/13 01:02:08;;;;;;;5.53;2.40;;;13.90;99.90;;;;;;6576352;21;20229;-86
2024/04/13 01:04:34;;;;;;;4.50;2.50;;;14.00;99.90;;;;;;6576695;21;20264;-85
2024/04/13 01:07:03;;;;;;;5.97;2.43;;;14.00;99.90;;;;;;6576628;21;20330;-86
2024/04/13 01:09:32;;;;;;;4.63;2.20;;;14.00;99.90;;;;;;6575918;21;20221;-85
2024/04/13 01:12:01;;;;;;;3.70;2.10;;;14.00;99.90;;;;;;6577108;21;20260;-85
2024/04/13 01:14:28;;;;;;;3.07;1.80;;;14.00;99.90;;;;;;6573613;21;20366;-86
2024/04/13 01:16:57;;;;;;;2.47;2.00;;;14.00;99.90;;;;;;6558474;21;20252;-87
2024/04/13 01:19:23;;;;;;;3.17;2.10;;;14.00;99.90;;;;;;6579977;21;20221;-88
2024/04/13 01:21:52;;;;;;;5.20;2.07;;;14.00;99.90;;;;;;6579951;21;20221;-87
2024/04/13 01:24:21;;;;;;;4.60;2.20;;;14.00;99.90;;;;;;6579969;21;20225;-87
2024/04/13 01:26:51;;;;;;;3.93;1.77;;;14.00;99.90;;;;;;6579706;21;20233;-88
2024/04/13 01:29:17;;;;;;;4.07;2.17;;;14.00;99.90;;;;;;6579730;21;20271;-88
2024/04/13 01:31:45;;;;;;;4.30;1.77;;;14.00;99.90;;;;;;6579661;21;20367;-87
2024/04/13 01:34:11;;;;;;;2.90;2.00;;;14.00;99.90;;;;;;6578972;21;20287;-88
2024/04/13 01:36:41;;;;;;;4.73;2.13;;;14.00;99.90;;;;;;6578932;21;20707;-87
2024/04/13 01:39:08;;;;;;;3.93;2.20;;;14.00;99.90;;;;;;6579488;21;20225;-88
2024/04/13 01:41:44;;;;;;;5.37;2.37;;;14.00;99.90;;;;;;6579181;21;20221;-88
2024/04/13 01:44:11;;;;;;;5.37;2.33;;;14.00;99.90;;;;;;6579472;21;20224;-88
2024/04/13 01:46:40;;;;;;;4.33;2.03;;;14.00;99.90;;;;;;6578555;21;20233;-88
2024/04/13 01:49:06;;;;;;;3.10;2.17;;;14.00;99.90;;;;;;6578672;21;20264;-88
2024/04/13 01:51:36;;;;;;;4.10;2.10;;;14.00;99.90;;;;;;6579100;21;20225;-88
2024/04/13 01:54:03;;;;;;;3.23;2.37;;;13.90;99.90;;;;;;6578997;21;20299;-88
2024/04/13 01:56:32;;;;;;;4.47;1.87;;;13.90;99.90;;;;;;6578821;21;20720;-87
2024/04/13 01:59:00;;;;;;;4.37;2.40;;;13.90;99.90;;;;;;6578713;21;20228;-88
2024/04/13 02:01:30;;;;;;;4.90;2.00;;;13.90;99.90;;;;;;6578331;21;20267;-89
2024/04/13 02:03:55;;;;;;;4.13;2.27;;;14.00;99.90;;;;;;6578917;21;20594;-87
2024/04/13 02:06:24;;;;;;;2.33;2.00;;;13.90;99.90;;;;;;6578147;21;20335;-87
2024/04/13 02:08:50;;;;;;;4.70;2.57;;;13.90;99.90;;;;;;6579166;21;20229;-87
2024/04/13 02:11:19;;;;;;;3.23;1.80;;;14.00;99.90;;;;;;6578602;21;20536;-88
2024/04/13 02:13:45;;;;;;;4.40;2.37;;;13.90;99.90;;;;;;6578908;21;20360;-88
2024/04/13 02:16:16;;;;;;;3.60;2.20;;;13.90;99.90;;;;;;6578818;21;20229;-89
2024/04/13 02:18:42;;;;;;;2.83;1.93;;;13.80;99.90;;;;;;6579675;21;20233;-88
2024/04/13 02:21:10;;;;;;;3.40;2.40;;;13.90;99.90;;;;;;6578940;21;20225;-88
2024/04/13 02:23:36;;;;;;;3.37;2.17;;;13.80;99.90;;;;;;6578952;21;20260;-88
2024/04/13 02:26:07;;;;;;;3.43;2.23;;;13.80;99.90;;;;;;6579097;21;20221;-88
2024/04/13 02:28:34;;;;;;;4.60;2.37;;;13.80;99.90;;;;;;6579356;21;20343;-88
2024/04/13 02:31:04;;;;;;;3.37;2.10;;;13.80;99.90;;;;;;6578926;21;20221;-88
2024/04/13 02:33:33;;;;;;;3.73;2.10;;;13.80;99.90;;;;;;6578828;21;20316;-88
2024/04/13 02:36:02;;;;;;;2.30;2.10;;;13.80;99.90;;;;;;6578832;21;20535;-88
2024/04/13 02:38:28;;;;;;;4.20;2.20;;;13.80;99.90;;;;;;6579067;21;20283;-88
2024/04/13 02:40:57;;;;;;;4.53;2.23;;;13.80;99.90;;;;;;6579075;21;20689;-88
2024/04/13 02:43:23;;;;;;;4.97;2.07;;;13.80;99.90;;;;;;6578777;21;20323;-87
2024/04/13 02:45:52;;;;;;;4.50;2.30;;;13.80;99.90;;;;;;6579190;21;20232;-88
2024/04/13 02:48:20;;;;;;;2.80;2.37;;;13.70;99.90;;;;;;6579100;21;20233;-87
2024/04/13 02:50:51;;;;;;;3.57;2.77;;;13.80;99.90;;;;;;6578881;21;20335;-87
2024/04/13 02:53:17;;;;;;;4.70;2.37;;;13.80;99.90;;;;;;6578628;21;20276;-88
2024/04/13 02:55:46;;;;;;;3.13;2.20;;;13.80;99.90;;;;;;6578873;21;20681;-87
2024/04/13 02:58:11;;;;;;;3.23;2.20;;;13.80;99.90;;;;;;6579069;21;20234;-87
2024/04/13 03:00:40;;;;;;;3.73;2.23;;;13.80;99.90;;;;;;6578723;21;20736;-88
2024/04/13 03:03:06;;;;;;;3.83;2.27;;;13.70;99.90;;;;;;6579178;21;20221;-87
2024/04/13 03:05:34;;;;;;;3.30;2.10;;;13.70;99.90;;;;;;6578799;21;20277;-86
2024/04/13 03:08:03;;;;;;;3.07;2.13;;;13.70;99.90;;;;;;6578241;21;20279;-88
2024/04/13 03:10:32;;;;;;;3.03;2.53;;;13.70;99.90;;;;;;6578857;21;20338;-87
2024/04/13 03:12:58;;;;;;;3.17;2.33;;;13.70;99.90;;;;;;6580394;21;20225;-88
2024/04/13 03:15:26;;;;;;;3.93;2.80;;;13.70;99.90;;;;;;6580501;21;20269;-88
2024/04/13 03:17:53;;;;;;;3.07;2.30;;;13.70;99.90;;;;;;6580474;21;20241;-88
2024/04/13 03:20:21;;;;;;;3.60;2.40;;;13.70;99.90;;;;;;6580372;21;20225;-87
2024/04/13 03:22:47;;;;;;;2.63;2.10;;;13.70;99.90;;;;;;6580395;21;20271;-88
2024/04/13 03:25:18;;;;;;;3.57;2.57;;;13.70;99.90;;;;;;6580628;21;20229;-87
2024/04/13 03:27:45;;;;;;;3.80;2.57;;;13.70;99.90;;;;;;6580141;21;20237;-88
2024/04/13 03:30:13;;;;;;;2.93;2.27;;;13.70;99.90;;;;;;6579262;21;20225;-88
2024/04/13 03:32:39;;;;;;;4.37;2.50;;;13.70;99.90;;;;;;6580242;21;20267;-87
2024/04/13 03:35:09;;;;;;;3.07;2.40;;;13.60;99.90;;;;;;6580462;21;20225;-88
2024/04/13 03:37:36;;;;;;;4.20;2.70;;;13.70;99.90;;;;;;6579925;21;20283;-89
2024/04/13 03:40:05;;;;;;;3.67;2.30;;;13.60;99.90;;;;;;6580448;21;20547;-87
2024/04/13 03:42:34;;;;;;;5.13;2.73;;;13.60;99.90;;;;;;6579306;21;20252;-88
2024/04/13 03:45:02;;;;;;;2.73;2.30;;;13.60;99.90;;;;;;6580160;21;20822;-86
2024/04/13 03:47:28;;;;;;;4.37;2.90;;;13.50;99.90;;;;;;6580445;21;20233;-87
2024/04/13 03:49:57;;;;;;;4.07;2.50;;;13.50;99.90;;;;;;6580402;21;20276;-87
2024/04/13 03:52:22;;;;;;;2.43;2.23;;;13.50;99.90;;;;;;6580382;21;20233;-88
2024/04/13 03:54:51;;;;;;;4.37;2.73;;;13.50;99.90;;;;;;6580489;21;20563;-88
2024/04/13 03:57:17;;;;;;;3.70;2.10;;;13.40;99.90;;;;;;6580089;21;20233;-88
2024/04/13 03:59:48;;;;;;;3.17;2.60;;;13.40;99.90;;;;;;6580262;21;20271;-88
2024/04/13 04:02:14;;;;;;;3.73;2.60;;;13.40;99.90;;;;;;6580545;21;20256;-88
2024/04/13 04:04:42;;;;;;;4.60;2.47;;;13.40;99.90;;;;;;6580287;21;20543;-88
2024/04/13 04:07:08;;;;;;;5.23;3.00;;;13.40;99.90;;;;;;6580751;21;20700;-87
2024/04/13 04:09:37;;;;;;;2.60;2.40;;;13.40;99.90;;;;;;6581399;21;20263;-88
2024/04/13 04:12:04;;;;;;;3.70;2.43;;;13.40;99.90;;;;;;6580950;21;20264;-86
2024/04/13 04:14:32;;;;;;;3.60;2.60;;;13.40;99.90;;;;;;6580945;21;20673;-87
2024/04/13 04:17:01;;;;;;;7.27;2.73;;;13.30;99.90;;;;;;6580732;21;20237;-87
2024/04/13 04:19:29;;;;;;;3.00;2.23;;;13.30;99.90;;;;;;6581708;21;20323;-87
2024/04/13 04:21:55;;;;;;;3.73;2.57;;;13.30;99.90;;;;;;6580262;21;20218;-87
2024/04/13 04:24:24;;;;;;;3.83;2.50;;;13.20;99.90;;;;;;6580510;21;20284;-87
2024/04/13 04:26:51;;;;;;;4.60;2.70;;;13.20;99.90;;;;;;6580733;21;20233;-87
2024/04/13 04:29:20;;;;;;;3.33;2.37;;;13.20;99.90;;;;;;6580825;21;20225;-87
2024/04/13 04:31:46;;;;;;;5.00;2.67;;;13.20;99.90;;;;;;6580687;21;20317;-87
2024/04/13 04:34:18;;;;;;;4.97;2.80;;;13.20;99.90;;;;;;6580914;21;20243;-87
2024/04/13 04:36:44;;;;;;;3.60;2.83;;;13.20;99.90;;;;;;6580737;21;20322;-88
2024/04/13 04:39:12;;;;;;;3.30;2.70;;;13.20;99.90;;;;;;6580704;21;20225;-88
2024/04/13 04:41:39;;;;;;;4.80;2.60;;;13.20;99.90;;;;;;6580843;21;20292;-88
2024/04/13 04:44:08;;;;;;;4.60;2.40;;;13.20;99.90;;;;;;6580141;21;20264;-87
2024/04/13 04:46:35;;;;;;;3.40;2.53;;;13.20;99.90;;;;;;6580214;21;20347;-87
2024/04/13 04:49:04;;;;;;;4.03;2.80;;;13.20;99.90;;;;;;6581523;21;20260;-87
2024/04/13 04:51:32;;;;;;;6.27;3.10;;;13.20;99.90;;;;;;6581281;21;20222;-86
2024/04/13 04:54:01;;;;;;;3.70;2.40;;;13.20;99.90;;;;;;6580411;21;20351;-87
2024/04/13 04:56:27;;;;;;;3.27;2.53;;;13.20;99.90;;;;;;6580182;21;20304;-87
2024/04/13 04:58:56;;;;;;;5.20;2.43;;;13.20;99.90;;;;;;6580988;21;20283;-87
2024/04/13 05:01:22;;;;;;;4.83;2.90;;;13.20;99.90;;;;;;6579990;21;20279;-87
2024/04/13 05:03:50;;;;;;;3.63;2.17;;;13.20;99.90;;;;;;6580174;21;20268;-87
2024/04/13 05:06:18;;;;;;;3.97;2.53;;;13.20;99.90;;;;;;6580604;21;20225;-87
2024/04/13 05:08:49;;;;;;;5.33;2.70;;;13.20;99.90;;;;;;6580549;21;20233;-87
2024/04/13 05:11:16;;;;;;;5.23;3.27;;;13.20;99.90;;;;;;6580537;21;20221;-88
2024/04/13 05:13:44;;;;;;;3.77;2.57;;;13.20;99.90;;;;;;6580099;21;20284;-86
2024/04/13 05:16:10;;;;;;;6.70;2.80;;;13.20;99.90;;;;;;6580245;21;20247;-87
2024/04/13 05:18:39;;;;;;;6.70;2.73;;;13.30;99.90;;;;;;6579782;21;20265;-87
2024/04/13 05:21:05;;;;;;;3.17;2.43;;;13.20;99.90;;;;;;6579430;21;20229;-87
2024/04/13 05:23:33;;;;;;;3.83;2.30;;;13.20;99.90;;;;;;6579844;21;20285;-88
2024/04/13 05:26:02;;;;;;;8.63;3.20;;;13.30;99.90;;;;;;6580316;21;20276;-87
2024/04/13 05:28:30;;;;;;;5.63;2.60;;;13.30;99.90;;;;;;6580004;21;20282;-87
2024/04/13 05:30:56;;;;;;;3.33;2.40;;;13.30;99.90;;;;;;6580213;21;20377;-87
2024/04/13 05:33:26;;;;;;;5.40;3.17;;;13.30;99.90;;;;;;6579116;21;20617;-87
2024/04/13 05:35:52;;;;;;;4.27;2.27;;;13.30;99.90;;;;;;6580536;21;20529;-87
2024/04/13 05:38:20;;;;;;;6.00;2.70;;;13.30;99.90;;;;;;6580031;21;20292;-87
2024/04/13 05:40:46;;;;;;;4.63;2.67;;;13.30;99.90;;;;;;6580110;21;20226;-87
2024/04/13 05:43:17;;;;;;;4.67;2.77;;;13.30;99.90;;;;;;6579504;21;20592;-87
2024/04/13 05:45:43;;;;;;;3.80;2.53;;;13.40;99.90;;;;;;6579956;21;20272;-86
2024/04/13 05:48:12;;;;;;;3.40;2.37;;;13.40;99.90;;;;;;6579546;21;20237;-87
2024/04/13 05:50:38;;;;;;;5.67;2.93;;;13.40;99.90;;;;;;6580136;21;20239;-87
2024/04/13 05:53:07;;;;;;;5.57;2.70;;;13.40;99.90;;;;;;6579924;21;20285;-87
2024/04/13 05:55:35;;;;;;;3.77;2.40;;;13.40;99.90;;;;;;6579515;21;20680;-86
2024/04/13 05:58:03;;;;;;;3.97;2.60;;;13.40;99.90;;;;;;6578761;21;20238;-86
2024/04/13 06:00:32;;;;;;;5.07;2.53;;;13.40;99.90;;;;;;6579777;21;20680;-87
2024/04/13 06:03:00;;;;;;;7.77;3.30;;;13.50;99.90;;;;;;6580361;21;20576;-86
2024/04/13 06:05:26;;;;;;;5.80;2.50;;;13.50;99.90;;;;;;6580083;21;20751;-89
2024/04/13 06:07:55;;;;;;;4.33;2.80;;;13.50;99.90;;;;;;6580157;21;20271;-87
2024/04/13 06:10:21;;;;;;;6.87;2.33;;;13.50;99.90;;;;;;6580132;21;20225;-87
2024/04/13 06:12:50;;;;;;;6.70;2.57;;;13.50;99.90;;;;;;6579963;21;20303;-87
2024/04/13 06:15:16;;;;;;;4.83;2.60;;;13.60;99.90;;;;;;6580037;21;20260;-89
2024/04/13 06:17:47;;;;;;;2.80;2.10;;;13.60;99.90;;;;;;6580264;21;20237;-87
2024/04/13 06:20:13;;;;;;;5.90;2.57;;;13.70;99.90;;;;;;6579109;21;20226;-86
2024/04/13 06:22:42;;;;;;;5.43;3.03;;;13.70;99.90;;;;;;6579204;21;20633;-87
2024/04/13 06:25:10;;;;;;;4.00;2.83;;;13.70;99.90;;;;;;6579877;21;20225;-86
2024/04/13 06:27:39;;;;;;;3.80;2.40;;;13.70;99.90;;;;;;6580049;21;20303;-87
2024/04/13 06:30:07;;;;;;;5.97;2.50;;;13.80;99.90;;;;;;6579849;21;20225;-87
2024/04/13 06:32:36;;;;;;;5.13;2.50;;;13.80;99.90;;;;;;6579525;21;20237;-88
2024/04/13 06:35:08;;;;;;;5.87;2.63;;;13.80;99.90;;;;;;6579245;21;20650;-88
2024/04/13 06:37:36;;;;;;;4.47;2.33;;;13.80;99.90;;;;;;6579771;21;20248;-87
2024/04/13 06:40:04;;;;;;;5.63;2.50;;;13.90;99.90;;;;;;6579236;21;20217;-86
2024/04/13 06:42:33;;;;;;;3.93;2.47;;;14.00;99.90;;;;;;6579057;21;20268;-88
2024/04/13 06:45:00;;;;;;;4.20;2.57;;;14.00;99.90;;;;;;6578751;21;20602;-86
2024/04/13 06:47:29;;;;;;;5.17;2.40;;;14.10;99.90;;;;;;6578763;21;20249;-87
2024/04/13 06:49:55;;;;;;;6.37;2.70;;;14.10;99.90;;;;;;6579209;21;20288;-87
2024/04/13 06:52:27;;;;;;;4.93;3.00;;;14.10;99.90;;;;;;6579274;21;20325;-87
2024/04/13 06:54:53;;;;;;;4.50;2.67;;;14.20;99.90;;;;;;6579030;21;20260;-87
2024/04/13 06:57:22;;;;;;;4.00;2.10;;;14.20;99.90;;;;;;6579189;21;20692;-87
2024/04/13 06:59:49;;;;;;;8.43;2.63;;;14.20;99.90;;;;;;6578574;21;20229;-87
2024/04/13 07:02:19;;;;;;;4.87;2.73;;;14.20;99.90;;;;;;6579028;21;20249;-87
2024/04/13 07:04:45;;;;;;;4.57;2.43;;;14.30;99.90;;;;;;6578843;21;20221;-88
2024/04/13 07:07:13;;;;;;;7.07;2.50;;;14.30;99.90;;;;;;6579134;21;20800;-88
2024/04/13 07:09:42;;;;;;;5.33;2.73;;;14.30;99.90;;;;;;6579059;21;20225;-86
2024/04/13 07:12:13;;;;;;;4.03;2.63;;;14.30;99.90;;;;;;6579280;21;20229;-87
2024/04/13 07:14:40;;;;;;;4.10;2.70;;;14.40;99.90;;;;;;6578892;21;20225;-87
2024/04/13 07:17:09;;;;;;;6.43;2.40;;;14.50;99.90;;;;;;6578385;21;20288;-88
2024/04/13 07:19:35;;;;;;;4.07;2.50;;;14.50;99.90;;;;;;6578126;21;20221;-88
2024/04/13 07:22:03;;;;;;;4.77;2.40;;;14.50;99.90;;;;;;6577479;21;20225;-87
2024/04/13 07:24:29;;;;;;;3.67;2.50;;;14.50;99.90;;;;;;6576720;21;20221;-89
2024/04/13 07:27:00;;;;;;;5.13;2.33;;;14.60;99.90;;;;;;6577067;21;20285;-88
2024/04/13 07:29:27;;;;;;;3.77;2.40;;;14.60;99.90;;;;;;6577571;21;20225;-89
2024/04/13 07:31:55;;;;;;;7.50;2.63;;;14.60;99.90;;;;;;6577655;21;20225;-88
2024/04/13 07:34:21;;;;;;;4.07;2.50;;;14.60;99.90;;;;;;6577347;21;20217;-87
2024/04/13 07:36:50;;;;;;;3.90;2.00;;;14.70;99.90;;;;;;6576992;21;20292;-89
2024/04/13 07:39:16;;;;;;;6.97;2.53;;;14.70;99.90;;;;;;6576582;21;20217;-88
2024/04/13 07:41:44;;;;;;;5.00;2.40;;;14.70;99.90;;;;;;6577241;21;20263;-89
2024/04/13 07:44:13;;;;;;;7.27;2.30;;;14.70;99.90;;;;;;6576437;21;20440;-88
2024/04/13 07:46:42;;;;;;;4.57;2.50;;;14.70;99.90;;;;;;6576536;21;20284;-87
2024/04/13 07:49:08;;;;;;;4.87;2.63;;;14.70;99.90;;;;;;6576812;21;20226;-88
2024/04/13 07:51:36;;;;;;;6.50;2.40;;;14.70;99.90;;;;;;6576963;21;20225;-88
2024/04/13 07:54:02;;;;;;;4.50;2.80;;;14.70;99.90;;;;;;6576855;21;20677;-89
2024/04/13 07:56:31;;;;;;;3.17;2.20;;;14.80;99.90;;;;;;6577579;21;20242;-89
2024/04/13 07:58:57;;;;;;;3.17;2.50;;;14.90;99.90;;;;;;6579176;21;20344;-89
2024/04/13 08:01:28;;;;;;;6.10;2.30;;;15.00;99.90;;;;;;6579387;21;20229;-88
2024/04/13 08:03:54;;;;;;;7.37;2.63;;;15.20;99.90;;;;;;6579809;21;20708;-89
2024/04/13 08:06:23;;;;;;;4.07;2.57;;;15.30;99.90;;;;;;6579339;21;20276;-88
2024/04/13 08:08:49;;;;;;;4.63;2.63;;;15.40;99.90;;;;;;6579795;21;20221;-87
2024/04/13 08:11:17;;;;;;;4.83;2.57;;;15.40;99.90;;;;;;6579281;21;20263;-88
2024/04/13 08:13:43;;;;;;;6.50;2.50;;;15.50;99.90;;;;;;6579052;21;20225;-88
2024/04/13 08:16:12;;;;;;;5.63;2.63;;;15.60;99.90;;;;;;6579750;21;20524;-88
2024/04/13 08:18:41;;;;;;;6.47;2.50;;;15.50;99.90;;;;;;6579300;21;20352;-88
2024/04/13 08:21:09;;;;;;;6.57;2.83;;;15.60;99.90;;;;;;6579016;21;20236;-89
2024/04/13 08:23:35;;;;;;;6.40;2.30;;;15.60;99.90;;;;;;6579490;21;20268;-87
2024/04/13 08:26:05;;;;;;;3.70;2.47;;;15.60;99.90;;;;;;6579094;21;20541;-87
2024/04/13 08:28:31;;;;;;;5.83;2.80;;;15.60;99.90;;;;;;6579200;21;20272;-87
2024/04/13 08:30:59;;;;;;;7.70;2.53;;;15.50;99.90;;;;;;6578483;21;20285;-87
2024/04/13 08:33:25;;;;;;;4.67;2.40;;;15.60;99.90;;;;;;6577462;21;20225;-88
2024/04/13 08:36:05;;;;;;;6.93;2.93;;;15.60;99.90;;;;;;6578628;21;20248;-88
2024/04/13 08:38:31;;;;;;;6.57;2.30;;;15.60;99.90;;;;;;6577709;21;20732;-88
2024/04/13 08:41:05;;;;;;;5.33;2.63;;;15.70;99.90;;;;;;6578105;21;20225;-88
2024/04/13 08:43:31;;;;;;;5.43;2.43;;;15.90;99.90;;;;;;6578168;21;20533;-88
2024/04/13 08:46:04;;;;;;;6.97;2.20;;;16.00;99.90;;;;;;6578223;21;20585;-89
2024/04/13 08:48:31;;;;;;;6.30;2.27;;;16.20;99.90;;;;;;6578687;21;20241;-88
2024/04/13 08:51:01;;;;;;;5.20;2.67;;;16.20;99.90;;;;;;6578680;21;20264;-88
2024/04/13 08:53:32;;;;;;;6.37;2.80;;;16.20;99.90;;;;;;6579042;21;20221;-88
2024/04/13 08:56:02;;;;;;;7.70;3.00;;;16.10;99.90;;;;;;6578147;21;20224;-90
2024/04/13 08:58:30;;;;;;;5.47;2.67;;;16.10;99.90;;;;;;6577543;21;20229;-89
2024/04/13 09:01:01;;;;;;;6.73;2.80;;;16.20;99.90;;;;;;6578504;21;20264;-88
2024/04/13 09:03:28;;;;;;;5.40;2.90;;;16.20;99.90;;;;;;6578688;21;20580;-88
2024/04/13 09:05:56;;;;;;;3.73;2.43;;;16.30;99.90;;;;;;6579204;21;20268;-89
2024/04/13 09:08:23;;;;;;;4.93;2.80;;;16.40;99.90;;;;;;6578506;21;20697;-88
2024/04/13 09:10:58;;;;;;;6.67;2.57;;;16.40;99.90;;;;;;6579075;21;20299;-88
2024/04/13 09:13:24;;;;;;;5.43;2.53;;;16.60;99.90;;;;;;6578006;21;20664;-88
2024/04/13 09:15:52;;;;;;;4.93;2.73;;;16.80;99.90;;;;;;6578091;21;20271;-88
2024/04/13 09:18:19;;;;;;;6.13;2.53;;;16.90;99.90;;;;;;6577420;21;20237;-87
2024/04/13 09:20:48;;;;;;;5.50;2.97;;;16.90;99.90;;;;;;6577973;21;20263;-88
2024/04/13 09:23:14;;;;;;;4.47;2.70;;;17.10;99.90;;;;;;6578429;21;20233;-90
2024/04/13 09:25:42;;;;;;;5.23;2.37;;;17.10;99.90;;;;;;6578397;21;20566;-89
2024/04/13 09:28:12;;;;;;;6.37;2.37;;;17.10;99.90;;;;;;6577681;21;20280;-88
2024/04/13 09:30:41;;;;;;;4.90;2.93;;;17.10;99.90;;;;;;6578106;21;20241;-89
2024/04/13 09:33:07;;;;;;;6.40;2.20;;;17.20;99.90;;;;;;6578536;21;20289;-89
2024/04/13 09:35:36;;;;;;;7.07;2.53;;;17.20;99.90;;;;;;6577818;21;20856;-88
2024/04/13 09:38:03;;;;;;;8.00;2.60;;;17.30;99.90;;;;;;6578658;21;20548;-89
2024/04/13 09:40:34;;;;;;;6.03;2.43;;;17.20;99.90;;;;;;6578501;21;20743;-88
2024/04/13 09:43:00;;;;;;;6.33;2.50;;;17.10;99.90;;;;;;6578430;21;20229;-89
2024/04/13 09:45:31;;;;;;;3.57;2.60;;;17.10;99.90;;;;;;6578306;21;20260;-89
2024/04/13 09:47:59;;;;;;;3.30;2.03;;;17.20;99.90;;;;;;6578474;21;20576;-88
2024/04/13 09:50:28;;;;;;;10.93;2.73;;;17.30;99.90;;;;;;6577583;21;20236;-87
2024/04/13 09:52:57;;;;;;;4.20;2.40;;;17.30;99.90;;;;;;6577649;21;20355;-89
2024/04/13 09:55:26;;;;;;;6.57;2.50;;;17.30;99.90;;;;;;6578251;21;20225;-88
2024/04/13 09:57:52;;;;;;;4.50;2.37;;;17.30;99.90;;;;;;6578043;21;20276;-88
2024/04/13 10:00:22;;;;;;;4.77;2.10;;;17.30;99.90;;;;;;6578223;21;20665;-89
2024/04/13 10:02:51;;;;;;;5.80;2.40;;;17.40;99.90;;;;;;6577738;21;20225;-87
2024/04/13 10:05:21;;;;;;;4.70;2.50;;;17.40;99.90;;;;;;6577455;21;20226;-88
2024/04/13 10:07:49;;;;;;;4.73;2.27;;;17.40;99.90;;;;;;6578042;21;20229;-88
2024/04/13 10:10:20;;;;;;;3.37;2.20;;;17.40;99.90;;;;;;6578136;21;20233;-88
2024/04/13 10:12:46;;;;;;;4.13;1.70;;;17.50;99.90;;;;;;6578275;21;20673;-88
2024/04/13 10:15:17;;;;;;;2.63;2.10;;;17.60;99.90;;;;;;6577367;21;20334;-89
2024/04/13 10:17:44;;;;;;;3.73;2.33;;;17.60;99.90;;;;;;6578124;21;20280;-88
2024/04/13 10:20:16;;;;;;;4.23;2.50;;;17.60;99.90;;;;;;6576523;21;20681;-87
2024/04/13 10:22:52;;;;;;;4.73;2.30;;;17.70;99.90;;;;;;6578252;21;20221;-88
2024/04/13 10:25:28;;;;;;;6.00;2.50;;;17.90;99.90;;;;;;6577820;21;20716;-89
2024/04/13 10:28:05;;;;;;;3.33;1.63;;;17.90;99.90;;;;;;6577990;21;20287;-89
2024/04/13 10:30:47;;;;;;;4.33;2.00;;;18.00;99.90;;;;;;6576941;21;20233;-89
2024/04/13 10:33:18;;;;;;;4.83;1.87;;;18.00;99.90;;;;;;6577454;21;20225;-88
2024/04/13 10:35:56;;;;;;;4.47;2.20;;;18.10;99.90;;;;;;6577244;21;20229;-91
2024/04/13 10:38:23;;;;;;;4.00;2.33;;;18.30;99.90;;;;;;6577468;21;20233;-89
2024/04/13 10:40:51;;;;;;;3.53;1.43;;;18.40;99.90;;;;;;6577326;21;20229;-89
2024/04/13 10:43:18;;;;;;;5.23;2.20;;;18.50;99.90;;;;;;6576468;21;20260;-87
2024/04/13 10:45:52;;;;;;;4.87;2.00;;;18.60;99.90;;;;;;6577136;21;20264;-88
2024/04/13 10:48:19;;;;;;;3.47;1.63;;;18.60;99.90;;;;;;6577915;21;20378;-89
2024/04/13 10:50:49;;;;;;;2.80;1.97;;;18.60;99.90;;;;;;6576891;21;20339;-88
2024/04/13 10:53:18;;;;;;;2.87;2.10;;;18.60;99.90;;;;;;6576477;21;20225;-89
2024/04/13 10:55:47;;;;;;;4.93;2.23;;;18.70;99.90;;;;;;6576750;21;20264;-89
2024/04/13 10:58:12;;;;;;;3.77;1.90;;;18.70;99.90;;;;;;6577333;21;20276;-87
2024/04/13 11:00:46;;;;;;;2.70;1.50;;;18.80;99.90;;;;;;6577348;21;20550;-88
2024/04/13 11:03:12;;;;;;;3.43;1.80;;;18.80;99.90;;;;;;6576813;21;20222;-90
2024/04/13 11:05:41;;;;;;;5.30;2.10;;;18.80;99.90;;;;;;6577374;21;20229;-90
2024/04/13 11:08:08;;;;;;;2.90;1.63;;;18.80;99.90;;;;;;6577131;21;20234;-88
2024/04/13 11:10:39;;;;;;;2.67;1.83;;;19.00;99.90;;;;;;6577360;21;20285;-88
2024/04/13 11:13:06;;;;;;;5.40;2.10;;;19.00;99.90;;;;;;6576918;21;20273;-87
2024/04/13 11:15:34;;;;;;;3.70;1.70;;;19.00;99.90;;;;;;6576801;21;20224;-89
2024/04/13 11:18:01;;;;;;;2.53;1.70;;;19.20;99.90;;;;;;6577312;21;20302;-89
2024/04/13 11:20:32;;;;;;;3.40;1.33;;;19.20;99.90;;;;;;6577276;21;20227;-88
2024/04/13 11:22:59;;;;;;;2.40;1.50;;;19.20;99.90;;;;;;6576740;21;20241;-87
2024/04/13 11:25:27;;;;;;;2.73;2.13;;;19.20;99.90;;;;;;6577443;21;20265;-88
2024/04/13 11:27:56;;;;;;;3.23;1.60;;;19.30;99.90;;;;;;6576564;21;20234;-88
2024/04/13 11:30:25;;;;;;;4.00;1.80;;;19.40;99.90;;;;;;6576426;21;20524;-89
2024/04/13 11:32:51;;;;;;;2.67;1.47;;;19.40;99.90;;;;;;6580091;21;20271;-87
2024/04/13 11:35:20;;;;;;;3.33;1.70;;;19.40;99.90;;;;;;6579727;21;20229;-89
2024/04/13 11:37:53;;;;;;;3.43;1.87;;;19.50;99.90;;;;;;6579181;21;20242;-88
2024/04/13 11:40:22;;;;;;;3.73;1.90;;;19.50;99.90;;;;;;6579254;21;20759;-88
2024/04/13 11:42:49;;;;;;;2.93;1.67;;;19.50;99.90;;;;;;6579687;21;20523;-88
2024/04/13 11:45:21;;;;;;;3.13;1.67;;;19.60;99.90;;;;;;6579003;21;20303;-89
2024/04/13 11:47:47;;;;;;;3.10;1.80;;;19.60;99.90;;;;;;6578561;21;20239;-89
2024/04/13 11:50:16;;;;;;;3.07;1.50;;;19.70;99.90;;;;;;6579377;21;20227;-89
2024/04/13 11:52:42;;;;;;;2.10;1.40;;;19.80;99.90;;;;;;6578303;21;20228;-89
2024/04/13 11:55:11;;;;;;;6.07;1.67;;;20.00;99.90;;;;;;6579001;21;20699;-89
2024/04/13 11:57:44;;;;;;;3.20;1.90;;;20.10;99.90;;;;;;6578426;21;20293;-88
2024/04/13 12:00:14;;;;;;;2.97;1.80;;;20.10;99.90;;;;;;6579401;21;20239;-88
2024/04/13 12:02:43;;;;;;;3.47;1.87;;;20.20;99.90;;;;;;6579872;21;20228;-89
2024/04/13 12:05:12;;;;;;;4.50;1.80;;;20.00;99.90;;;;;;6578178;21;20232;-88
2024/04/13 12:07:38;;;;;;;3.03;1.50;;;19.90;99.90;;;;;;6578547;21;20235;-90
2024/04/13 12:10:07;;;;;;;3.17;1.67;;;20.00;99.90;;;;;;6579906;21;20273;-89
2024/04/13 12:12:33;;;;;;;3.73;2.20;;;20.20;99.90;;;;;;6579682;21;20223;-89
2024/04/13 12:15:01;;;;;;;3.30;1.77;;;20.30;99.90;;;;;;6579539;21;20688;-89
2024/04/13 12:17:27;;;;;;;2.70;1.90;;;20.40;99.90;;;;;;6578842;21;20240;-89
2024/04/13 12:20:00;;;;;;;3.10;2.10;;;20.50;99.90;;;;;;6579067;21;20227;-88
2024/04/13 12:22:26;;;;;;;2.93;1.90;;;20.60;99.90;;;;;;6578822;21;20224;-88
2024/04/13 12:24:55;;;;;;;4.03;2.20;;;20.60;99.90;;;;;;6578489;21;20229;-90
2024/04/13 12:27:21;;;;;;;2.60;1.97;;;20.60;99.90;;;;;;6578569;21;20688;-88
2024/04/13 12:29:49;;;;;;;3.20;1.83;;;20.60;99.90;;;;;;6578627;21;20270;-89
2024/04/13 12:32:15;;;;;;;5.20;2.23;;;20.50;99.90;;;;;;6578648;21;20224;-87
2024/04/13 12:34:43;;;;;;;2.83;2.00;;;20.30;99.90;;;;;;6579122;21;20219;-88
2024/04/13 12:37:12;;;;;;;2.67;2.00;;;20.20;99.90;;;;;;6579216;21;20829;-89
2024/04/13 12:39:41;;;;;;;4.37;1.90;;;20.30;99.90;;;;;;6578760;21;20274;-89
2024/04/13 12:42:07;;;;;;;2.70;1.90;;;20.50;99.90;;;;;;6578321;21;20284;-89
2024/04/13 12:44:36;;;;;;;4.77;2.53;;;20.50;99.90;;;;;;6578648;21;20315;-88
2024/04/13 12:47:02;;;;;;;3.03;2.20;;;20.70;99.90;;;;;;6578842;21;20278;-88
2024/04/13 12:49:30;;;;;;;3.33;2.47;;;20.80;99.90;;;;;;6578454;21;20712;-88
2024/04/13 12:51:56;;;;;;;3.37;2.40;;;20.80;99.90;;;;;;6578344;21;20525;-88